KJOT/JOT METAR and TAF weather

Enter ICAO airport designator
Station Type Date Time Source
KJOT METAR 2020/07/11 00:35 UTC NOAA

KJOT 110035Z AUTO 31005KT 10SM CLR 28/18 A2990 RMK AO2 T02780176


Station Type Date Time Source
KJOT Decoded METAR 2020/07/11 00:35 UTC NOAA

Joliet, Joliet Regional Airport, IL, United States (KJOT) 41-31-05N 088-10-31W
Jul 10, 2020 - 08:35 PM EDT / 2020.07.11 0035 UTC
Wind: from the NW (310 degrees) at 6 MPH (5 KT):0
Visibility: 10 mile(s):0
Sky conditions: clear
Temperature: 82.0 F (27.8 C)
Dew Point: 63.7 F (17.6 C)
Relative Humidity: 53%
Pressure (altimeter): 29.9 in. Hg (1012 hPa)
ob: KJOT 110035Z AUTO 31005KT 10SM CLR 28/18 A2990 RMK AO2 T02780176
cycle: 0

Station Type Date Time Source
KJOT TAF UTC NOAA

Error!

Example: see airport list